Time;durP1;ratioP1;P1;durP2;ratioP2;P2;SDS_P1;SDS_P2;PMS_P1;PMS_P2;Temp;Humidity;BMP_temperature;BMP_pressure;BME280_temperature;BME280_humidity;BME280_pressure;Samples;Min_cycle;Max_cycle;Signal;HPM_P1;HPM_P2
2022/04/08 00:00:50;;;;;;;8.83;1.10;;;5.70;99.90;;;;;;5065699;28;20107;-32
2022/04/08 00:03:16;;;;;;;7.13;1.30;;;5.70;99.90;;;;;;5064466;28;20044;-33
2022/04/08 00:05:42;;;;;;;8.77;1.30;;;5.70;99.90;;;;;;5057909;28;20373;-30
2022/04/08 00:08:08;;;;;;;7.20;1.17;;;5.60;99.90;;;;;;5029031;28;20492;-30
2022/04/08 00:10:34;;;;;;;6.70;1.13;;;5.60;99.90;;;;;;5045607;28;20036;-30
2022/04/08 00:13:00;;;;;;;5.13;0.80;;;5.60;99.90;;;;;;5043999;28;20064;-32
2022/04/08 00:15:25;;;;;;;3.60;0.50;;;5.60;99.90;;;;;;5045408;28;20040;-31
2022/04/08 00:17:51;;;;;;;5.37;0.50;;;5.50;99.90;;;;;;5029560;28;20049;-30
2022/04/08 00:20:17;;;;;;;4.73;0.60;;;5.50;99.90;;;;;;5045206;28;20044;-32
2022/04/08 00:22:43;;;;;;;5.37;0.63;;;5.30;99.90;;;;;;5044973;28;20047;-32
2022/04/08 00:25:09;;;;;;;7.03;0.90;;;5.30;99.90;;;;;;5044897;28;20057;-29
2022/04/08 00:27:35;;;;;;;7.07;0.70;;;5.30;99.90;;;;;;5044481;28;20583;-30
2022/04/08 00:30:01;;;;;;;5.60;0.87;;;5.10;99.90;;;;;;5063651;28;20131;-32
2022/04/08 00:32:29;;;;;;;10.40;0.57;;;5.10;99.90;;;;;;5063139;28;20035;-33
2022/04/08 00:34:55;;;;;;;9.00;1.30;;;5.10;99.90;;;;;;5063392;28;20139;-33
2022/04/08 00:37:20;;;;;;;9.30;1.13;;;5.00;99.90;;;;;;5049523;28;20155;-32
2022/04/08 00:39:46;;;;;;;9.97;1.00;;;5.00;99.90;;;;;;5062914;28;20097;-33
2022/04/08 00:42:14;;;;;;;6.67;1.07;;;5.00;99.90;;;;;;5064144;28;20040;-31
2022/04/08 00:44:40;;;;;;;9.87;1.40;;;5.00;99.90;;;;;;5064537;28;20341;-30
2022/04/08 00:47:06;;;;;;;10.50;1.70;;;5.00;99.90;;;;;;5047940;28;20086;-32
2022/04/08 00:49:37;;;;;;;11.57;2.00;;;5.00;99.90;;;;;;5046505;28;20053;-34
2022/04/08 00:52:04;;;;;;;5.85;1.27;;;5.00;99.90;;;;;;5064747;28;20052;-31
2022/04/08 00:54:31;;;;;;;12.93;2.10;;;4.90;99.90;;;;;;5063836;28;20050;-32
2022/04/08 00:56:58;;;;;;;11.80;2.57;;;4.90;99.90;;;;;;5049938;28;20063;-30
2022/04/08 00:59:27;;;;;;;12.63;2.07;;;4.80;99.90;;;;;;5063486;28;20052;-30
2022/04/08 01:01:53;;;;;;;12.03;2.13;;;4.70;99.90;;;;;;5064963;28;20040;-31
2022/04/08 01:04:21;;;;;;;11.87;2.13;;;4.60;99.90;;;;;;5063569;28;20186;-31
2022/04/08 01:06:47;;;;;;;11.87;2.00;;;4.60;99.90;;;;;;5030929;28;20411;-31
2022/04/08 01:09:14;;;;;;;17.63;2.20;;;4.60;99.90;;;;;;5041612;28;20490;-33
2022/04/08 01:11:40;;;;;;;14.33;2.93;;;4.50;99.90;;;;;;5043153;28;20052;-33
2022/04/08 01:14:11;;;;;;;20.50;2.17;;;4.50;99.90;;;;;;5042078;28;20574;-31
2022/04/08 01:16:37;;;;;;;9.70;2.00;;;4.50;99.90;;;;;;5033145;28;20073;-29
2022/04/08 01:19:04;;;;;;;12.97;2.20;;;4.50;99.90;;;;;;5046218;28;20503;-31
2022/04/08 01:21:31;;;;;;;12.93;2.00;;;4.40;99.90;;;;;;5049187;28;20080;-33
2022/04/08 01:23:58;;;;;;;11.27;2.37;;;4.40;99.90;;;;;;5048110;28;20445;-32
2022/04/08 01:26:24;;;;;;;12.10;1.90;;;4.40;99.90;;;;;;5043154;28;20059;-33
2022/04/08 01:28:51;;;;;;;9.43;1.80;;;4.40;99.90;;;;;;5064891;28;20075;-30
2022/04/08 01:31:17;;;;;;;9.93;1.80;;;4.40;99.90;;;;;;5068204;28;20526;-34
2022/04/08 01:33:43;;;;;;;8.50;1.87;;;4.40;99.90;;;;;;5067898;28;20526;-31
2022/04/08 01:36:08;;;;;;;14.17;1.70;;;4.40;99.90;;;;;;5063425;28;20047;-32
2022/04/08 01:38:34;;;;;;;10.03;1.57;;;4.40;99.90;;;;;;5055228;28;20048;-31
2022/04/08 01:41:00;;;;;;;15.27;2.13;;;4.40;99.90;;;;;;5068326;28;20055;-34
2022/04/08 01:43:25;;;;;;;11.50;1.97;;;4.40;99.90;;;;;;5067747;28;20124;-32
2022/04/08 01:45:51;;;;;;;8.73;1.47;;;4.40;99.90;;;;;;5067809;28;20041;-31
2022/04/08 01:48:17;;;;;;;9.13;1.60;;;4.40;99.90;;;;;;5052323;28;20096;-31
2022/04/08 01:50:43;;;;;;;8.37;1.90;;;4.40;99.90;;;;;;5067908;28;20373;-31
2022/04/08 01:53:09;;;;;;;12.53;1.93;;;4.40;99.90;;;;;;5067391;28;20045;-30
2022/04/08 01:55:35;;;;;;;13.80;1.93;;;4.30;99.90;;;;;;5067892;28;20475;-34
2022/04/08 01:58:02;;;;;;;12.07;1.60;;;4.30;99.90;;;;;;5050619;28;20044;-33
2022/04/08 02:00:31;;;;;;;11.10;2.20;;;4.30;99.90;;;;;;5066323;28;20411;-32
2022/04/08 02:02:57;;;;;;;15.07;1.87;;;4.30;99.90;;;;;;5067207;28;20128;-30
2022/04/08 02:05:23;;;;;;;15.77;2.40;;;4.30;99.90;;;;;;5062654;28;20148;-32
2022/04/08 02:07:49;;;;;;;16.47;2.63;;;4.30;99.90;;;;;;5032124;28;20111;-31
2022/04/08 02:10:15;;;;;;;19.37;2.50;;;4.30;99.90;;;;;;5047573;28;20051;-31
2022/04/08 02:12:40;;;;;;;18.97;2.67;;;4.30;99.90;;;;;;5047474;28;20045;-32
2022/04/08 02:15:08;;;;;;;21.00;2.90;;;4.30;99.90;;;;;;5045844;28;20518;-33
2022/04/08 02:17:34;;;;;;;15.63;2.60;;;4.30;99.90;;;;;;5032011;28;20048;-31
2022/04/08 02:20:00;;;;;;;23.03;2.70;;;4.30;99.90;;;;;;5029559;28;20045;-32
2022/04/08 02:22:29;;;;;;;15.03;2.43;;;4.40;99.90;;;;;;5046606;28;20041;-30
2022/04/08 02:24:56;;;;;;;14.00;2.40;;;4.40;99.90;;;;;;5046060;28;20058;-31
2022/04/08 02:27:23;;;;;;;10.00;2.10;;;4.40;99.90;;;;;;5030653;28;20462;-32
2022/04/08 02:29:52;;;;;;;10.53;2.33;;;4.40;99.90;;;;;;5047559;28;20049;-29
2022/04/08 02:32:17;;;;;;;14.30;2.60;;;4.40;99.90;;;;;;5046760;28;20037;-34
2022/04/08 02:34:43;;;;;;;14.27;2.80;;;4.30;99.90;;;;;;5047239;28;20051;-34
2022/04/08 02:37:09;;;;;;;12.50;2.40;;;4.30;99.90;;;;;;5032275;28;20072;-33
2022/04/08 02:39:35;;;;;;;16.80;2.50;;;4.30;99.90;;;;;;5061946;28;20222;-33
2022/04/08 02:42:00;;;;;;;14.47;2.57;;;4.40;99.90;;;;;;5066847;28;20113;-32
2022/04/08 02:44:26;;;;;;;13.77;2.53;;;4.30;99.90;;;;;;5066572;28;20040;-33
2022/04/08 02:46:52;;;;;;;13.87;2.23;;;4.30;99.90;;;;;;5051770;28;20052;-30
2022/04/08 02:49:18;;;;;;;15.20;2.73;;;4.20;99.90;;;;;;5066781;28;20396;-33
2022/04/08 02:51:43;;;;;;;14.37;2.50;;;4.20;99.90;;;;;;5066619;28;20064;-32
2022/04/08 02:54:11;;;;;;;14.40;1.80;;;4.20;99.90;;;;;;5064567;28;20063;-32
2022/04/08 02:56:41;;;;;;;12.33;1.90;;;4.00;99.90;;;;;;5053157;28;20110;-33
2022/04/08 02:59:06;;;;;;;10.47;1.60;;;4.20;99.90;;;;;;5064872;28;20411;-31
2022/04/08 03:01:32;;;;;;;9.17;1.07;;;4.20;99.90;;;;;;5066958;28;20036;-33
2022/04/08 03:03:57;;;;;;;10.27;1.50;;;4.20;99.90;;;;;;5066114;28;20492;-30
2022/04/08 03:06:23;;;;;;;4.50;1.20;;;4.10;99.90;;;;;;5041042;28;20558;-33
2022/04/08 03:08:49;;;;;;;5.10;1.60;;;4.10;99.90;;;;;;5041290;28;20438;-30
2022/04/08 03:11:14;;;;;;;4.57;1.10;;;4.10;99.90;;;;;;5044676;28;20649;-31
2022/04/08 03:13:40;;;;;;;10.83;1.40;;;4.10;99.90;;;;;;5046328;28;20044;-33
2022/04/08 03:16:06;;;;;;;11.80;1.50;;;4.00;99.90;;;;;;5046550;28;20128;-30
2022/04/08 03:18:31;;;;;;;6.20;1.20;;;4.00;99.90;;;;;;5030290;28;20494;-31
2022/04/08 03:20:57;;;;;;;7.77;1.27;;;4.00;99.90;;;;;;5046363;28;20037;-31
2022/04/08 03:23:23;;;;;;;9.40;1.60;;;4.00;99.90;;;;;;5045730;28;20099;-30
2022/04/08 03:25:48;;;;;;;9.73;1.53;;;4.00;99.90;;;;;;5046112;28;20037;-30
2022/04/08 03:28:14;;;;;;;10.37;1.50;;;4.00;99.90;;;;;;5030180;28;20582;-31
2022/04/08 03:30:40;;;;;;;8.30;1.37;;;4.00;99.90;;;;;;5028255;28;20102;-30
2022/04/08 03:33:06;;;;;;;7.03;1.60;;;4.00;99.90;;;;;;5045331;28;20462;-33
2022/04/08 03:35:32;;;;;;;5.77;1.33;;;3.90;99.90;;;;;;5046483;28;20099;-34
2022/04/08 03:37:58;;;;;;;6.97;1.13;;;3.90;99.90;;;;;;5033851;28;20040;-34
2022/04/08 03:40:23;;;;;;;9.67;1.33;;;3.90;99.90;;;;;;5065815;28;20080;-32
2022/04/08 03:42:49;;;;;;;11.03;1.13;;;3.90;99.90;;;;;;5064701;28;20146;-33
2022/04/08 03:45:15;;;;;;;12.40;1.30;;;3.90;99.90;;;;;;5066409;28;20052;-31
2022/04/08 03:47:40;;;;;;;9.83;1.47;;;3.90;99.90;;;;;;5049264;28;20198;-31
2022/04/08 03:50:06;;;;;;;7.03;1.27;;;4.00;99.90;;;;;;5066094;28;20048;-32
2022/04/08 03:52:32;;;;;;;10.87;2.07;;;3.90;99.90;;;;;;5065194;28;20415;-33
2022/04/08 03:55:02;;;;;;;8.47;1.57;;;4.00;99.90;;;;;;5066024;28;20326;-32
2022/04/08 03:57:28;;;;;;;3.63;1.20;;;4.00;99.90;;;;;;5049414;28;20055;-34
2022/04/08 03:59:55;;;;;;;5.70;0.80;;;4.00;99.90;;;;;;5065760;28;20044;-34
2022/04/08 04:02:21;;;;;;;7.43;1.23;;;3.80;99.90;;;;;;5064666;28;20491;-31
2022/04/08 04:04:47;;;;;;;4.30;1.00;;;3.70;99.90;;;;;;5065555;28;20037;-32
2022/04/08 04:07:12;;;;;;;3.93;1.00;;;3.60;99.90;;;;;;5029417;28;20500;-33
2022/04/08 04:09:38;;;;;;;8.83;1.30;;;3.60;99.90;;;;;;5045750;28;20040;-31
2022/04/08 04:12:04;;;;;;;8.23;1.50;;;3.60;99.90;;;;;;5044488;28;20495;-34
2022/04/08 04:14:30;;;;;;;7.07;1.37;;;3.50;99.90;;;;;;5045738;28;20097;-33
2022/04/08 04:16:55;;;;;;;8.20;1.40;;;3.50;99.90;;;;;;5030183;28;20044;-31
2022/04/08 04:19:21;;;;;;;5.03;1.20;;;3.50;99.90;;;;;;5044397;28;20131;-32
2022/04/08 04:21:47;;;;;;;10.20;1.10;;;3.40;99.90;;;;;;5043773;28;20249;-33
2022/04/08 04:24:14;;;;;;;7.20;1.23;;;3.40;99.90;;;;;;5026408;28;20068;-33
2022/04/08 04:26:40;;;;;;;3.57;1.00;;;3.40;99.90;;;;;;5031680;28;20453;-31
2022/04/08 04:29:06;;;;;;;5.47;1.10;;;3.40;99.90;;;;;;5042444;28;20048;-32
2022/04/08 04:31:32;;;;;;;5.07;1.13;;;3.40;99.90;;;;;;5045099;28;20044;-34
2022/04/08 04:33:57;;;;;;;4.83;0.90;;;3.30;99.90;;;;;;5044137;28;20056;-32
2022/04/08 04:36:24;;;;;;;5.80;1.00;;;3.30;99.90;;;;;;5031329;28;20377;-34
2022/04/08 04:38:49;;;;;;;4.63;1.00;;;3.30;99.90;;;;;;5052228;28;20037;-35
2022/04/08 04:41:15;;;;;;;4.23;1.00;;;3.30;99.90;;;;;;5065063;28;20052;-34
2022/04/08 04:43:41;;;;;;;5.83;1.20;;;3.30;99.90;;;;;;5063963;28;20666;-30
2022/04/08 04:46:07;;;;;;;5.13;1.00;;;3.30;99.90;;;;;;5060487;28;20097;-33
2022/04/08 04:48:33;;;;;;;9.80;1.50;;;3.30;99.90;;;;;;5052966;28;20048;-30
2022/04/08 04:50:58;;;;;;;5.13;1.13;;;3.30;99.90;;;;;;5064651;28;20251;-34
2022/04/08 04:53:24;;;;;;;7.20;1.60;;;3.30;99.90;;;;;;5064010;28;20059;-33
2022/04/08 04:55:50;;;;;;;8.13;1.33;;;3.30;99.90;;;;;;5063240;28;20102;-31
2022/04/08 04:58:16;;;;;;;5.43;0.87;;;3.30;99.90;;;;;;5048721;28;20471;-31
2022/04/08 05:00:41;;;;;;;7.80;1.30;;;3.30;99.90;;;;;;5065001;28;20170;-31
2022/04/08 05:03:08;;;;;;;9.20;1.23;;;3.30;99.90;;;;;;5063722;28;20510;-32
2022/04/08 05:05:35;;;;;;;3.57;1.10;;;3.30;99.90;;;;;;5058074;28;20045;-30
2022/04/08 05:08:04;;;;;;;4.50;1.00;;;3.30;99.90;;;;;;5028172;28;20544;-34
2022/04/08 05:10:31;;;;;;;5.43;1.30;;;3.30;99.90;;;;;;5044959;28;20056;-32
2022/04/08 05:12:59;;;;;;;5.47;0.90;;;3.30;99.90;;;;;;5043525;28;20385;-30
2022/04/08 05:15:26;;;;;;;5.23;1.10;;;3.30;99.90;;;;;;5044781;28;20107;-33
2022/04/08 05:17:51;;;;;;;4.07;0.80;;;3.30;99.90;;;;;;5030385;28;20075;-32
2022/04/08 05:20:17;;;;;;;5.77;1.23;;;3.30;99.90;;;;;;5064773;28;20076;-34
2022/04/08 05:22:43;;;;;;;3.80;0.90;;;3.20;99.90;;;;;;5063611;28;20048;-33
2022/04/08 05:25:09;;;;;;;4.17;1.00;;;3.20;99.90;;;;;;5061980;28;20037;-31
2022/04/08 05:27:41;;;;;;;3.50;1.10;;;3.20;99.90;;;;;;5036363;28;20076;-30
2022/04/08 05:30:08;;;;;;;5.90;1.33;;;3.20;99.90;;;;;;5046588;28;20053;-30
2022/04/08 05:32:33;;;;;;;7.17;1.27;;;3.20;99.90;;;;;;5051609;28;20060;-33
2022/04/08 05:34:59;;;;;;;5.70;1.10;;;3.20;99.90;;;;;;5063387;28;20098;-33
2022/04/08 05:37:25;;;;;;;7.73;1.30;;;3.20;99.90;;;;;;5048152;28;20127;-32
2022/04/08 05:39:53;;;;;;;5.53;1.10;;;3.20;99.90;;;;;;5059939;28;20125;-33
2022/04/08 05:42:19;;;;;;;6.80;1.17;;;3.20;99.90;;;;;;5062054;28;20059;-30
2022/04/08 05:44:45;;;;;;;4.73;1.00;;;3.20;99.90;;;;;;5062316;28;20431;-33
2022/04/08 05:47:11;;;;;;;5.67;1.40;;;3.20;99.90;;;;;;5048451;28;20115;-32
2022/04/08 05:49:36;;;;;;;6.30;1.40;;;3.20;99.90;;;;;;5062112;28;20083;-31
2022/04/08 05:52:04;;;;;;;7.03;1.30;;;3.20;99.90;;;;;;5064185;28;20491;-32
2022/04/08 05:54:30;;;;;;;7.33;1.53;;;3.20;99.90;;;;;;5063261;28;20052;-34
2022/04/08 05:57:00;;;;;;;5.30;1.17;;;3.20;99.90;;;;;;5041391;28;20155;-31
2022/04/08 05:59:27;;;;;;;6.57;1.50;;;3.30;99.90;;;;;;5043580;28;20095;-33
2022/04/08 06:01:53;;;;;;;7.03;1.27;;;3.30;99.90;;;;;;5044589;28;20064;-31
2022/04/08 06:04:19;;;;;;;8.77;1.50;;;3.30;99.90;;;;;;5045737;28;20542;-32
2022/04/08 06:06:44;;;;;;;5.93;1.07;;;3.40;99.90;;;;;;5032900;28;20045;-31
2022/04/08 06:09:10;;;;;;;5.97;1.33;;;3.40;99.90;;;;;;5046631;28;20052;-32
2022/04/08 06:11:37;;;;;;;5.23;1.43;;;3.40;99.90;;;;;;5051453;28;20045;-31
2022/04/08 06:14:03;;;;;;;5.77;1.53;;;3.50;99.90;;;;;;5045988;28;20045;-31
2022/04/08 06:16:29;;;;;;;7.83;1.40;;;3.60;99.90;;;;;;5042043;28;20044;-31
2022/04/08 06:18:55;;;;;;;8.40;1.40;;;3.60;99.90;;;;;;5063281;28;20526;-32
2022/04/08 06:21:22;;;;;;;4.63;1.33;;;3.70;99.90;;;;;;5057644;28;20064;-30
2022/04/08 06:23:49;;;;;;;11.40;1.47;;;3.80;99.90;;;;;;5046546;28;20047;-33
2022/04/08 06:26:15;;;;;;;12.43;1.80;;;3.80;99.90;;;;;;5048367;28;20051;-34
2022/04/08 06:28:41;;;;;;;9.40;1.70;;;3.90;99.90;;;;;;5061844;28;20048;-32
2022/04/08 06:31:07;;;;;;;9.10;1.57;;;4.00;99.90;;;;;;5067144;28;20456;-32
2022/04/08 06:33:33;;;;;;;9.73;1.27;;;4.10;99.90;;;;;;5066592;28;20054;-30
2022/04/08 06:36:01;;;;;;;5.17;1.30;;;4.10;99.90;;;;;;5067189;28;20453;-31
2022/04/08 06:38:27;;;;;;;8.93;1.73;;;4.20;99.90;;;;;;5047984;28;20052;-33
2022/04/08 06:40:53;;;;;;;10.67;2.10;;;4.30;99.90;;;;;;5067069;28;20051;-33
2022/04/08 06:43:18;;;;;;;10.97;1.80;;;4.40;99.90;;;;;;5064590;28;20144;-32
2022/04/08 06:45:44;;;;;;;10.90;1.80;;;4.50;99.90;;;;;;5062571;28;20503;-34
2022/04/08 06:48:10;;;;;;;12.27;1.80;;;4.50;99.90;;;;;;5045556;28;20040;-36
2022/04/08 06:50:35;;;;;;;9.30;2.10;;;4.60;99.90;;;;;;5061297;28;20048;-32
2022/04/08 06:53:02;;;;;;;7.40;1.90;;;4.70;99.90;;;;;;5061100;28;20384;-36
2022/04/08 06:55:28;;;;;;;8.27;2.20;;;4.70;99.90;;;;;;5056833;28;20469;-36
2022/04/08 06:57:56;;;;;;;10.50;2.20;;;4.80;99.90;;;;;;5045387;28;20040;-35
2022/04/08 07:00:22;;;;;;;9.53;1.97;;;4.80;99.90;;;;;;5064523;28;20056;-32
2022/04/08 07:02:48;;;;;;;11.97;2.13;;;4.90;99.90;;;;;;5064076;28;20050;-35
2022/04/08 07:05:14;;;;;;;10.37;2.07;;;5.00;99.90;;;;;;5059228;28;20660;-35
2022/04/08 07:07:39;;;;;;;9.93;1.70;;;5.10;99.90;;;;;;5042304;28;20191;-33
2022/04/08 07:10:06;;;;;;;12.30;2.17;;;5.10;99.90;;;;;;5062341;28;20040;-31
2022/04/08 07:12:32;;;;;;;11.93;2.00;;;5.10;99.90;;;;;;5015068;28;20778;-31
2022/04/08 07:14:58;;;;;;;11.60;1.60;;;5.20;99.90;;;;;;5020674;28;20044;-33
2022/04/08 07:17:32;;;;;;;12.40;2.00;;;5.30;99.90;;;;;;5030061;28;20048;-31
2022/04/08 07:19:58;;;;;;;11.30;2.53;;;5.40;99.90;;;;;;5050380;28;20041;-32
2022/04/08 07:22:25;;;;;;;7.53;1.53;;;5.50;99.90;;;;;;5048737;28;20524;-31
2022/04/08 07:24:52;;;;;;;9.07;1.93;;;5.60;99.90;;;;;;5048864;28;20123;-31
2022/04/08 07:27:19;;;;;;;13.90;2.53;;;5.60;99.90;;;;;;5031059;28;20052;-31
2022/04/08 07:29:45;;;;;;;13.00;2.03;;;5.70;99.90;;;;;;5053163;28;20168;-31
2022/04/08 07:32:11;;;;;;;11.90;2.10;;;5.70;99.90;;;;;;5045517;28;20094;-32
2022/04/08 07:34:37;;;;;;;10.00;1.73;;;5.80;99.90;;;;;;5050250;28;20049;-32
2022/04/08 07:37:05;;;;;;;4.50;1.40;;;5.80;99.90;;;;;;5029766;28;20667;-34
2022/04/08 07:39:31;;;;;;;7.03;1.00;;;5.80;99.90;;;;;;5049183;28;20052;-33
2022/04/08 07:41:57;;;;;;;5.20;1.00;;;5.70;99.90;;;;;;5046114;28;20524;-35
2022/04/08 07:44:23;;;;;;;8.10;1.13;;;5.70;99.90;;;;;;5050096;28;20047;-35
2022/04/08 07:46:49;;;;;;;8.93;1.23;;;5.70;99.90;;;;;;5033603;28;20068;-33
2022/04/08 07:49:14;;;;;;;6.77;1.47;;;5.70;99.90;;;;;;5044930;28;20704;-31
2022/04/08 07:51:41;;;;;;;8.03;1.50;;;5.70;99.90;;;;;;5051814;28;20041;-33
2022/04/08 07:54:08;;;;;;;8.40;1.67;;;5.70;99.90;;;;;;5048772;28;20910;-31
2022/04/08 07:56:35;;;;;;;7.33;1.63;;;5.70;99.90;;;;;;5035731;28;20093;-34
2022/04/08 07:59:02;;;;;;;9.63;1.40;;;5.70;99.90;;;;;;5044661;28;20041;-32
2022/04/08 08:01:28;;;;;;;5.80;1.30;;;5.80;99.90;;;;;;5053002;28;20519;-33
2022/04/08 08:03:54;;;;;;;9.33;1.40;;;6.00;99.90;;;;;;5053100;28;20363;-31
2022/04/08 08:06:20;;;;;;;9.60;1.20;;;6.00;99.90;;;;;;5039032;28;20041;-32
2022/04/08 08:08:46;;;;;;;7.00;1.60;;;6.00;99.90;;;;;;5042079;28;20151;-34
2022/04/08 08:11:13;;;;;;;5.67;1.20;;;6.10;99.90;;;;;;5050522;28;20088;-34
2022/04/08 08:13:39;;;;;;;9.97;1.60;;;6.10;99.90;;;;;;5052271;28;20560;-34
2022/04/08 08:16:07;;;;;;;10.23;1.30;;;6.30;99.90;;;;;;5032216;28;20093;-31
2022/04/08 08:18:34;;;;;;;6.20;1.30;;;6.40;99.90;;;;;;5022631;28;20088;-32
2022/04/08 08:21:00;;;;;;;12.37;1.60;;;6.40;99.90;;;;;;5049686;28;20070;-32
2022/04/08 08:23:27;;;;;;;10.07;1.70;;;6.50;99.90;;;;;;5050374;28;20045;-32
2022/04/08 08:25:53;;;;;;;7.93;1.30;;;6.50;99.90;;;;;;5047387;28;20056;-32
2022/04/08 08:28:18;;;;;;;7.30;1.10;;;6.60;99.90;;;;;;5032667;28;20057;-31
2022/04/08 08:30:45;;;;;;;10.70;1.33;;;6.60;99.90;;;;;;5048850;28;20500;-33
2022/04/08 08:33:11;;;;;;;5.33;1.00;;;6.70;99.90;;;;;;5048730;28;20040;-32
2022/04/08 08:35:37;;;;;;;7.03;1.10;;;6.70;99.90;;;;;;5047578;28;20041;-31
2022/04/08 08:38:03;;;;;;;5.83;0.93;;;6.70;99.90;;;;;;5032229;28;20145;-34
2022/04/08 08:40:33;;;;;;;7.13;1.40;;;6.90;99.90;;;;;;5050001;28;20812;-34
2022/04/08 08:43:02;;;;;;;10.03;1.30;;;6.80;99.90;;;;;;5044100;28;20452;-34
2022/04/08 08:45:32;;;;;;;6.47;1.20;;;6.90;99.90;;;;;;5051877;28;20055;-31
2022/04/08 08:48:00;;;;;;;5.23;1.30;;;7.00;99.90;;;;;;5036385;28;20056;-33
2022/04/08 08:50:27;;;;;;;9.03;1.80;;;7.10;99.90;;;;;;5048815;28;20132;-34
2022/04/08 08:52:53;;;;;;;5.60;1.40;;;7.10;99.90;;;;;;5046851;28;20053;-31
2022/04/08 08:55:19;;;;;;;8.53;1.00;;;7.20;99.90;;;;;;5051445;28;20048;-32
2022/04/08 08:57:47;;;;;;;11.67;1.70;;;7.10;99.90;;;;;;5031295;28;20506;-32
2022/04/08 09:00:16;;;;;;;6.73;1.40;;;7.10;99.90;;;;;;5044170;28;20458;-32
2022/04/08 09:02:43;;;;;;;10.00;1.10;;;7.00;99.90;;;;;;5046446;28;20049;-34
2022/04/08 09:05:33;;;;;;;8.93;1.47;;;6.90;99.90;;;;;;5048690;28;20079;-35
2022/04/08 09:08:00;;;;;;;10.67;1.73;;;6.80;99.90;;;;;;5031488;28;20044;-32
2022/04/08 09:10:37;;;;;;;9.80;2.13;;;6.90;99.90;;;;;;5046254;28;20646;-31
2022/04/08 09:13:05;;;;;;;7.97;1.80;;;6.90;99.90;;;;;;5045380;28;20051;-34
2022/04/08 09:15:33;;;;;;;12.00;1.47;;;7.00;99.90;;;;;;5049382;28;20437;-34
2022/04/08 09:18:13;;;;;;;7.87;1.40;;;7.00;99.90;;;;;;5031744;28;20479;-33
2022/04/08 09:20:39;;;;;;;8.17;1.43;;;7.00;99.90;;;;;;5048763;28;20036;-31
2022/04/08 09:23:07;;;;;;;9.10;1.30;;;7.20;99.90;;;;;;5049323;28;20491;-34
2022/04/08 09:25:33;;;;;;;6.80;1.10;;;7.00;99.90;;;;;;5048689;28;20086;-32
2022/04/08 09:28:06;;;;;;;3.80;0.80;;;7.00;99.90;;;;;;5030306;28;20049;-33
2022/04/08 09:30:32;;;;;;;4.70;0.80;;;7.00;99.90;;;;;;5049392;28;20061;-34
2022/04/08 09:32:58;;;;;;;4.47;0.80;;;7.00;99.90;;;;;;5049066;28;20040;-34
2022/04/08 09:35:27;;;;;;;4.50;0.80;;;7.00;99.90;;;;;;5048253;28;20499;-31
2022/04/08 09:38:00;;;;;;;5.67;1.10;;;7.00;99.90;;;;;;5038527;28;20037;-32
2022/04/08 09:40:25;;;;;;;7.33;1.30;;;7.20;99.90;;;;;;5058427;28;20056;-31
2022/04/08 09:42:53;;;;;;;6.07;1.40;;;7.20;99.90;;;;;;5051187;28;20052;-34
2022/04/08 09:45:30;;;;;;;7.03;1.33;;;7.30;99.90;;;;;;5053123;28;20329;-33
2022/04/08 09:47:57;;;;;;;7.77;1.40;;;7.40;99.90;;;;;;4978110;28;20053;-34
2022/04/08 09:50:24;;;;;;;9.73;1.50;;;7.50;99.90;;;;;;5055454;28;20048;-32
2022/04/08 09:52:49;;;;;;;8.00;1.67;;;7.60;99.90;;;;;;5057001;28;20295;-32
2022/04/08 09:55:16;;;;;;;10.33;1.17;;;7.60;99.90;;;;;;5050480;28;20058;-34
2022/04/08 09:57:46;;;;;;;7.57;1.13;;;7.60;99.90;;;;;;5040620;28;20040;-31
2022/04/08 10:00:12;;;;;;;5.40;0.70;;;7.50;99.90;;;;;;5052199;28;20135;-31
2022/04/08 10:02:48;;;;;;;3.43;0.50;;;7.50;99.90;;;;;;5047276;28;20291;-33
2022/04/08 10:05:13;;;;;;;3.27;0.50;;;7.40;99.90;;;;;;5047319;28;20059;-31
2022/04/08 10:07:40;;;;;;;1.50;0.50;;;7.40;99.90;;;;;;5037301;28;20048;-33
2022/04/08 10:10:32;;;;;;;3.17;0.50;;;7.40;99.90;;;;;;5050369;28;20123;-31
2022/04/08 10:13:30;;;;;;;6.33;1.07;;;7.40;99.90;;;;;;5052055;28;20064;-34
2022/04/08 10:16:16;;;;;;;6.53;1.00;;;7.50;99.90;;;;;;5045182;28;20053;-31
2022/04/08 10:18:43;;;;;;;8.57;1.20;;;7.70;99.90;;;;;;5050164;28;20045;-33
2022/04/08 10:21:10;;;;;;;6.53;1.43;;;7.60;99.90;;;;;;5050803;28;20036;-34
2022/04/08 10:23:55;;;;;;;8.47;1.40;;;7.70;99.90;;;;;;5050582;28;20048;-33
2022/04/08 10:26:25;;;;;;;9.43;1.63;;;7.90;99.90;;;;;;5041614;28;20037;-32
2022/04/08 10:28:53;;;;;;;3.90;0.90;;;7.90;99.90;;;;;;5043440;28;20178;-33
2022/04/08 10:31:26;;;;;;;4.93;0.70;;;8.10;99.90;;;;;;5051871;28;20037;-31
2022/04/08 10:34:00;;;;;;;7.57;1.10;;;7.90;99.90;;;;;;5044581;28;20514;-33
2022/04/08 10:36:37;;;;;;;5.47;0.70;;;7.80;99.90;;;;;;5032612;28;20500;-34
2022/04/08 10:39:13;;;;;;;3.40;0.70;;;7.70;99.90;;;;;;5041546;28;20041;-32
2022/04/08 10:42:00;;;;;;;6.03;1.03;;;7.60;99.90;;;;;;5044145;28;20561;-33
2022/04/08 10:44:44;;;;;;;4.20;0.67;;;7.50;99.90;;;;;;5053466;28;20125;-32
2022/04/08 10:47:11;;;;;;;5.77;1.00;;;7.40;99.90;;;;;;5031634;28;20420;-34
2022/04/08 10:49:54;;;;;;;6.20;1.17;;;7.40;99.90;;;;;;5048950;28;20037;-35
2022/04/08 10:52:28;;;;;;;7.90;1.30;;;7.40;99.90;;;;;;5049935;28;20110;-34
2022/04/08 10:55:12;;;;;;;8.03;1.63;;;7.50;99.90;;;;;;5046997;28;20477;-33
2022/04/08 10:57:44;;;;;;;6.53;1.53;;;7.60;99.90;;;;;;5034541;28;20555;-34
2022/04/08 11:00:14;;;;;;;11.63;1.40;;;7.70;99.90;;;;;;5050849;28;20141;-35
2022/04/08 11:02:45;;;;;;;11.63;1.83;;;7.90;99.90;;;;;;5050828;28;20044;-34
2022/04/08 11:05:18;;;;;;;5.83;1.23;;;8.00;99.90;;;;;;5051487;28;20048;-33
2022/04/08 11:07:46;;;;;;;3.93;0.97;;;8.10;99.90;;;;;;5036473;28;20051;-34
2022/04/08 11:10:13;;;;;;;5.63;0.90;;;8.20;99.90;;;;;;5043132;28;20281;-36
2022/04/08 11:12:48;;;;;;;3.30;0.80;;;8.30;99.90;;;;;;5048667;28;20381;-32
2022/04/08 11:15:15;;;;;;;9.43;1.47;;;8.30;99.90;;;;;;5046209;28;20041;-33
2022/04/08 11:17:42;;;;;;;5.57;1.00;;;8.30;99.90;;;;;;5034002;28;20488;-35
2022/04/08 11:20:13;;;;;;;5.80;1.30;;;8.30;99.90;;;;;;5052203;28;20067;-32
2022/04/08 11:22:42;;;;;;;;;;;8.30;99.90;;;;;;5053987;28;20158;-33
2022/04/08 11:25:09;;;;;;;6.13;0.93;;;8.40;99.90;;;;;;5051462;28;19938;-35
2022/04/08 11:27:35;;;;;;;4.60;1.10;;;8.50;99.90;;;;;;5034876;28;20041;-36
2022/04/08 11:30:07;;;;;;;6.73;0.73;;;8.50;99.90;;;;;;5041531;28;20119;-33
2022/04/08 11:32:33;;;;;;;6.50;1.23;;;8.50;99.90;;;;;;5052787;28;20052;-34
2022/04/08 11:35:09;;;;;;;5.80;0.90;;;8.60;99.90;;;;;;5060095;28;20047;-36
2022/04/08 11:37:34;;;;;;;3.87;0.87;;;8.60;99.90;;;;;;5039617;28;20045;-32
2022/04/08 11:40:00;;;;;;;4.30;0.80;;;8.60;99.90;;;;;;5059681;28;20047;-33
2022/04/08 11:42:27;;;;;;;9.67;1.27;;;8.70;99.90;;;;;;5050509;28;20244;-34
2022/04/08 11:44:53;;;;;;;6.87;1.27;;;8.60;99.90;;;;;;5050562;28;20184;-35
2022/04/08 11:47:29;;;;;;;9.30;1.17;;;8.70;99.90;;;;;;5032044;28;20045;-34
2022/04/08 11:50:03;;;;;;;4.77;1.27;;;8.70;99.90;;;;;;5047452;28;20514;-35
2022/04/08 11:52:29;;;;;;;7.87;1.20;;;8.70;99.90;;;;;;5027156;28;21145;-33
2022/04/08 11:55:05;;;;;;;9.27;1.17;;;8.70;99.90;;;;;;5047280;28;20139;-36
2022/04/08 11:57:33;;;;;;;6.17;1.30;;;8.80;99.90;;;;;;5030611;28;20049;-34
2022/04/08 12:00:01;;;;;;;8.03;1.37;;;8.90;99.90;;;;;;5043153;28;20045;-33
2022/04/08 12:02:27;;;;;;;9.07;1.30;;;8.90;99.90;;;;;;5047054;28;20044;-35
2022/04/08 12:04:53;;;;;;;5.87;1.20;;;9.00;99.90;;;;;;5050116;28;20407;-32
2022/04/08 12:07:30;;;;;;;6.90;0.83;;;9.00;99.90;;;;;;5027958;28;20040;-33
2022/04/08 12:09:58;;;;;;;9.93;1.43;;;9.10;99.90;;;;;;5046463;28;20044;-34
2022/04/08 12:12:30;;;;;;;7.00;1.27;;;9.30;99.90;;;;;;5046869;28;20380;-31
2022/04/08 12:15:08;;;;;;;6.53;1.23;;;9.30;99.90;;;;;;5048540;28;20123;-31
2022/04/08 12:17:42;;;;;;;5.73;1.40;;;9.30;99.90;;;;;;5032215;28;20145;-30
2022/04/08 12:20:19;;;;;;;5.40;1.37;;;9.30;99.90;;;;;;5044089;28;20462;-31
2022/04/08 12:22:49;;;;;;;6.73;1.37;;;9.30;99.90;;;;;;5046778;28;20053;-31
2022/04/08 12:25:18;;;;;;;5.23;0.93;;;9.20;99.90;;;;;;5041549;28;20507;-30
2022/04/08 12:27:50;;;;;;;5.37;1.13;;;9.00;99.90;;;;;;5026223;28;20075;-33
2022/04/08 12:30:16;;;;;;;7.43;1.00;;;8.90;99.90;;;;;;5045068;28;20512;-31
2022/04/08 12:32:43;;;;;;;5.13;0.93;;;8.70;99.90;;;;;;5039993;28;20091;-32
2022/04/08 12:35:12;;;;;;;5.93;0.90;;;8.80;99.90;;;;;;5048985;28;20046;-30
2022/04/08 12:37:38;;;;;;;5.43;1.00;;;8.60;99.90;;;;;;5037423;28;20072;-32
2022/04/08 12:40:05;;;;;;;4.13;0.90;;;8.60;99.90;;;;;;5042172;28;20167;-31
2022/04/08 12:42:34;;;;;;;5.93;0.80;;;8.60;99.90;;;;;;5040534;28;20523;-34
2022/04/08 12:45:01;;;;;;;6.67;1.03;;;8.70;99.90;;;;;;5047706;28;20527;-34
2022/04/08 12:47:26;;;;;;;5.43;1.27;;;8.80;99.90;;;;;;5033545;28;20045;-34
2022/04/08 12:49:52;;;;;;;12.67;1.60;;;8.70;99.90;;;;;;5053018;28;20392;-32
2022/04/08 12:52:18;;;;;;;7.13;1.13;;;8.80;99.90;;;;;;5051537;28;20126;-33
2022/04/08 12:54:43;;;;;;;8.60;1.10;;;8.80;99.90;;;;;;5045429;28;20059;-31
2022/04/08 12:57:09;;;;;;;7.20;1.30;;;9.00;99.90;;;;;;5033531;28;20059;-33